Time;durP1;ratioP1;P1;durP2;ratioP2;P2;SDS_P1;SDS_P2;PMS_P1;PMS_P2;Temp;Humidity;BMP_temperature;BMP_pressure;BME280_temperature;BME280_humidity;BME280_pressure;Samples;Min_cycle;Max_cycle;Signal;HPM_P1;HPM_P2
2023/01/02 00:00:17;;;;;;;4.77;3.50;;;;;;;;;;4942845;28;20528;-75
2023/01/02 00:03:09;;;;;;;6.77;3.93;;;;;;;;;;4947251;28;20471;-75
2023/01/02 00:05:57;;;;;;;5.13;3.10;;;;;;;;;;4949043;28;20468;-75
2023/01/02 00:08:46;;;;;;;5.63;3.20;;;;;;;;;;4948004;28;20557;-76
2023/01/02 00:11:38;;;;;;;6.30;3.03;;;;;;;;;;4948527;28;20486;-75
2023/01/02 00:14:27;;;;;;;3.93;3.53;;;;;;;;;;4950931;28;20834;-75
2023/01/02 00:17:19;;;;;;;5.93;3.53;;;;;;;;;;4949653;28;20468;-76
2023/01/02 00:20:11;;;;;;;5.90;3.40;;;;;;;;;;4946254;28;20492;-75
2023/01/02 00:23:01;;;;;;;4.87;3.30;;;;;;;;;;4948024;28;20994;-76
2023/01/02 00:25:50;;;;;;;6.40;3.50;;;;;;;;;;4947930;28;20458;-76
2023/01/02 00:28:41;;;;;;;7.10;3.80;;;;;;;;;;4947209;28;20881;-75
2023/01/02 00:31:32;;;;;;;5.40;3.90;;;;;;;;;;4948633;28;20498;-76
2023/01/02 00:34:22;;;;;;;5.10;3.80;;;;;;;;;;4943298;28;20560;-75
2023/01/02 00:37:10;;;;;;;7.10;4.00;;;;;;;;;;4940460;28;20590;-76
2023/01/02 00:40:00;;;;;;;5.27;4.07;;;;;;;;;;4920007;28;20484;-75
2023/01/02 00:42:53;;;;;;;9.43;4.60;;;;;;;;;;4924144;28;21017;-75
2023/01/02 00:45:43;;;;;;;4.90;4.10;;;;;;;;;;4919943;28;20460;-76
2023/01/02 00:48:36;;;;;;;7.20;4.93;;;;;;;;;;4924528;28;20479;-75
2023/01/02 00:51:28;;;;;;;7.80;5.00;;;;;;;;;;4921559;28;20475;-75
2023/01/02 00:54:18;;;;;;;6.40;5.10;;;;;;;;;;4920613;28;20455;-75
2023/01/02 00:57:08;;;;;;;6.13;4.80;;;;;;;;;;4939627;28;20578;-75
2023/01/02 00:59:59;;;;;;;9.07;4.50;;;;;;;;;;4930223;28;20502;-75
2023/01/02 01:02:50;;;;;;;4.93;4.17;;;;;;;;;;4929634;28;20491;-75
2023/01/02 01:05:40;;;;;;;5.60;4.60;;;;;;;;;;4930448;28;20459;-75
2023/01/02 01:08:32;;;;;;;4.73;4.23;;;;;;;;;;4922711;28;22592;-75
2023/01/02 01:11:22;;;;;;;6.33;4.80;;;;;;;;;;4924348;28;20525;-75
2023/01/02 01:14:11;;;;;;;5.57;4.97;;;;;;;;;;4922628;28;21007;-75
2023/01/02 01:16:59;;;;;;;7.23;4.00;;;;;;;;;;4936745;28;20456;-75
2023/01/02 01:19:50;;;;;;;5.77;4.30;;;;;;;;;;4925523;28;20502;-75
2023/01/02 01:22:41;;;;;;;9.33;4.70;;;;;;;;;;4921898;28;20547;-75
2023/01/02 01:25:31;;;;;;;4.80;4.27;;;;;;;;;;4930392;28;20821;-75
2023/01/02 01:28:22;;;;;;;5.60;4.60;;;;;;;;;;4939631;28;20558;-75
2023/01/02 01:31:13;;;;;;;5.87;4.23;;;;;;;;;;4926028;28;20498;-75
2023/01/02 01:34:01;;;;;;;6.27;4.77;;;;;;;;;;4943364;28;20543;-76
2023/01/02 01:36:53;;;;;;;5.17;4.13;;;;;;;;;;4923779;28;20475;-75
2023/01/02 01:39:44;;;;;;;6.77;4.40;;;;;;;;;;4949544;28;20487;-75
2023/01/02 01:42:36;;;;;;;8.10;4.70;;;;;;;;;;4947973;28;20843;-75
2023/01/02 01:45:25;;;;;;;5.40;4.40;;;;;;;;;;4943611;28;20497;-75
2023/01/02 01:48:15;;;;;;;7.27;4.83;;;;;;;;;;4950774;28;20458;-78
2023/01/02 01:51:05;;;;;;;5.20;4.60;;;;;;;;;;4949689;28;20468;-77
2023/01/02 01:53:58;;;;;;;7.37;5.10;;;;;;;;;;4939935;28;20462;-77
2023/01/02 01:56:51;;;;;;;6.20;5.10;;;;;;;;;;4936446;28;20542;-77
2023/01/02 01:59:42;;;;;;;5.60;5.00;;;;;;;;;;4952352;28;20475;-75
2023/01/02 02:02:37;;;;;;;6.10;4.70;;;;;;;;;;4949115;28;20547;-75
2023/01/02 02:05:27;;;;;;;6.70;5.40;;;;;;;;;;4952761;28;20470;-75
2023/01/02 02:08:18;;;;;;;5.93;5.20;;;;;;;;;;4951925;28;20448;-75
2023/01/02 02:11:08;;;;;;;10.53;5.47;;;;;;;;;;4951577;28;20472;-75
2023/01/02 02:13:58;;;;;;;6.40;5.33;;;;;;;;;;4949990;28;20467;-75
2023/01/02 02:16:50;;;;;;;5.87;5.20;;;;;;;;;;4952516;28;20459;-75
2023/01/02 02:19:58;;;;;;;5.60;5.10;;;;;;;;;;4944993;28;21070;-75
2023/01/02 02:23:17;;;;;;;6.60;5.57;;;;;;;;;;4953378;28;20622;-75
2023/01/02 02:26:16;;;;;;;8.07;6.27;;;;;;;;;;4949545;28;20463;-78
2023/01/02 02:29:22;;;;;;;6.80;5.57;;;;;;;;;;4951395;28;20479;-77
2023/01/02 02:32:15;;;;;;;7.60;6.13;;;;;;;;;;4951714;28;20486;-75
2023/01/02 02:35:06;;;;;;;7.20;5.70;;;;;;;;;;4942492;28;20546;-75
2023/01/02 02:37:58;;;;;;;10.73;5.70;;;;;;;;;;4942789;28;21045;-75
2023/01/02 02:40:52;;;;;;;7.17;5.30;;;;;;;;;;4928280;28;20489;-75
2023/01/02 02:43:45;;;;;;;8.17;5.60;;;;;;;;;;4932981;28;20542;-75
2023/01/02 02:46:42;;;;;;;7.53;6.27;;;;;;;;;;4933143;28;20452;-75
2023/01/02 02:49:37;;;;;;;7.20;5.43;;;;;;;;;;4924109;28;20643;-75
2023/01/02 02:52:31;;;;;;;6.40;5.77;;;;;;;;;;4918435;28;20472;-75
2023/01/02 02:55:24;;;;;;;6.10;5.30;;;;;;;;;;4927027;28;20459;-75
2023/01/02 02:58:19;;;;;;;7.63;5.03;;;;;;;;;;4926026;28;20462;-77
2023/01/02 03:01:08;;;;;;;5.70;5.20;;;;;;;;;;4922448;28;20488;-77
2023/01/02 03:03:57;;;;;;;6.47;5.13;;;;;;;;;;4948374;28;20479;-78
2023/01/02 03:06:55;;;;;;;11.27;5.80;;;;;;;;;;4947474;28;21191;-77
2023/01/02 03:09:50;;;;;;;7.07;5.23;;;;;;;;;;4922303;28;20552;-75
2023/01/02 03:12:45;;;;;;;8.00;5.57;;;;;;;;;;4939748;28;20475;-76
2023/01/02 03:15:41;;;;;;;6.90;4.80;;;;;;;;;;4924810;28;20464;-76
2023/01/02 03:18:33;;;;;;;6.60;5.50;;;;;;;;;;4931425;28;20506;-76
2023/01/02 03:21:31;;;;;;;6.93;5.70;;;;;;;;;;4924971;28;20519;-76
2023/01/02 03:24:23;;;;;;;6.57;5.57;;;;;;;;;;4937787;28;20455;-76
2023/01/02 03:27:16;;;;;;;8.00;5.70;;;;;;;;;;4924397;28;20450;-76
2023/01/02 03:30:13;;;;;;;7.93;5.37;;;;;;;;;;4928364;28;20530;-76
2023/01/02 03:33:07;;;;;;;7.30;5.70;;;;;;;;;;4948490;28;20448;-76
2023/01/02 03:36:00;;;;;;;7.33;5.00;;;;;;;;;;4949266;28;20448;-76
2023/01/02 03:39:01;;;;;;;6.90;5.77;;;;;;;;;;4944413;28;20490;-76
2023/01/02 03:41:56;;;;;;;9.57;5.87;;;;;;;;;;4945639;28;20491;-77
2023/01/02 03:44:51;;;;;;;6.03;5.20;;;;;;;;;;4939682;28;20476;-76
2023/01/02 03:47:42;;;;;;;7.70;5.17;;;;;;;;;;4940544;28;20458;-76
2023/01/02 03:50:37;;;;;;;9.47;5.00;;;;;;;;;;4936984;28;20606;-76
2023/01/02 03:53:31;;;;;;;6.50;4.70;;;;;;;;;;4937157;28;20452;-77
2023/01/02 03:56:25;;;;;;;7.03;4.73;;;;;;;;;;4930348;28;20475;-76
2023/01/02 03:59:20;;;;;;;7.57;5.30;;;;;;;;;;4923607;28;20483;-76
2023/01/02 04:02:12;;;;;;;7.40;4.87;;;;;;;;;;4923260;28;20488;-76
2023/01/02 04:05:09;;;;;;;6.83;4.90;;;;;;;;;;4936075;28;20467;-77
2023/01/02 04:08:00;;;;;;;7.27;5.13;;;;;;;;;;4952184;28;21022;-79
2023/01/02 04:10:50;;;;;;;5.47;4.80;;;;;;;;;;4951113;28;21032;-77
2023/01/02 04:13:47;;;;;;;5.87;5.27;;;;;;;;;;4960074;28;22601;-77
2023/01/02 04:16:41;;;;;;;6.00;5.10;;;;;;;;;;4948940;28;20548;-77
2023/01/02 04:19:34;;;;;;;5.70;4.80;;;;;;;;;;4948139;28;20476;-77
2023/01/02 04:22:26;;;;;;;6.40;4.83;;;;;;;;;;4943624;28;20483;-77
2023/01/02 04:25:16;;;;;;;9.97;5.73;;;;;;;;;;4948004;28;20467;-77
2023/01/02 04:28:09;;;;;;;7.27;4.63;;;;;;;;;;4948134;28;20585;-77
2023/01/02 04:31:00;;;;;;;8.00;5.27;;;;;;;;;;4948432;28;20485;-77
2023/01/02 04:33:57;;;;;;;7.93;4.90;;;;;;;;;;4949677;28;20455;-77
2023/01/02 04:36:59;;;;;;;7.43;4.87;;;;;;;;;;4947543;28;20459;-77
2023/01/02 04:39:49;;;;;;;11.63;5.20;;;;;;;;;;4945875;28;20912;-77
2023/01/02 04:42:38;;;;;;;6.00;4.80;;;;;;;;;;4945426;28;20483;-77
2023/01/02 04:45:34;;;;;;;5.57;4.97;;;;;;;;;;4948466;28;20452;-77
2023/01/02 04:48:23;;;;;;;7.80;5.30;;;;;;;;;;4945270;28;20472;-77
2023/01/02 04:51:14;;;;;;;6.00;5.03;;;;;;;;;;4941884;28;20476;-77
2023/01/02 04:54:03;;;;;;;9.37;5.43;;;;;;;;;;4943163;28;21006;-77
2023/01/02 04:56:53;;;;;;;5.70;4.93;;;;;;;;;;4946120;28;20462;-77
2023/01/02 04:59:48;;;;;;;10.23;5.00;;;;;;;;;;4947998;28;20987;-77
2023/01/02 05:02:37;;;;;;;7.47;4.47;;;;;;;;;;4946241;28;20867;-77
2023/01/02 05:05:27;;;;;;;6.60;5.30;;;;;;;;;;4948003;28;20463;-77
2023/01/02 05:08:19;;;;;;;7.43;5.20;;;;;;;;;;4938265;28;21003;-77
2023/01/02 05:11:09;;;;;;;7.03;5.10;;;;;;;;;;4947875;28;22331;-77
2023/01/02 05:13:59;;;;;;;7.10;4.90;;;;;;;;;;4936706;28;20459;-77
2023/01/02 05:16:56;;;;;;;7.97;5.13;;;;;;;;;;4941946;28;20840;-77
2023/01/02 05:19:49;;;;;;;6.37;4.53;;;;;;;;;;4952640;28;20525;-77
2023/01/02 05:25:51;;;;;;;7.63;4.77;;;;;;;;;;4950607;28;21035;-77
2023/01/02 05:28:40;;;;;;;6.70;4.87;;;;;;;;;;4944759;28;20531;-77
2023/01/02 05:31:28;;;;;;;8.07;4.97;;;;;;;;;;4944335;28;20472;-77
2023/01/02 05:34:21;;;;;;;7.77;4.90;;;;;;;;;;4945527;28;20971;-75
2023/01/02 05:37:10;;;;;;;8.03;5.30;;;;;;;;;;4939384;28;20470;-75
2023/01/02 05:40:01;;;;;;;6.40;4.87;;;;;;;;;;4949526;28;20478;-75
2023/01/02 05:43:00;;;;;;;5.93;5.10;;;;;;;;;;4948254;28;20514;-77
2023/01/02 05:45:52;;;;;;;9.00;4.93;;;;;;;;;;4927900;28;20459;-77
2023/01/02 05:48:43;;;;;;;7.30;5.03;;;;;;;;;;4926920;28;23508;-77
2023/01/02 05:51:33;;;;;;;5.60;4.70;;;;;;;;;;4925318;28;20579;-77
2023/01/02 05:54:25;;;;;;;7.37;4.87;;;;;;;;;;4937802;28;20550;-76
2023/01/02 05:57:19;;;;;;;8.20;5.07;;;;;;;;;;4935303;28;20870;-77
2023/01/02 06:00:13;;;;;;;6.90;5.33;;;;;;;;;;4921063;28;20468;-77
2023/01/02 06:03:05;;;;;;;6.03;5.13;;;;;;;;;;4932161;28;20494;-77
2023/01/02 06:05:54;;;;;;;6.27;5.47;;;;;;;;;;4943502;28;21221;-75
2023/01/02 06:08:44;;;;;;;8.17;5.20;;;;;;;;;;4950804;28;20471;-78
2023/01/02 06:11:34;;;;;;;5.57;5.00;;;;;;;;;;4950543;28;21188;-77
2023/01/02 06:14:24;;;;;;;7.57;5.67;;;;;;;;;;4949252;28;20466;-77
2023/01/02 06:17:14;;;;;;;7.97;5.50;;;;;;;;;;4952476;28;20546;-75
2023/01/02 06:20:07;;;;;;;9.70;6.10;;;;;;;;;;4947724;28;20478;-77
2023/01/02 06:23:00;;;;;;;7.00;5.50;;;;;;;;;;4948361;28;20486;-77
2023/01/02 06:25:52;;;;;;;7.60;5.43;;;;;;;;;;4947780;28;20460;-78
2023/01/02 06:28:44;;;;;;;7.83;5.50;;;;;;;;;;4945774;28;20476;-78
2023/01/02 06:31:35;;;;;;;8.90;5.17;;;;;;;;;;4942175;28;21106;-78
2023/01/02 06:34:30;;;;;;;6.73;5.30;;;;;;;;;;4926527;28;20972;-77
2023/01/02 06:37:21;;;;;;;7.20;5.20;;;;;;;;;;4914748;28;20639;-75
2023/01/02 06:40:12;;;;;;;6.43;5.13;;;;;;;;;;4933863;28;21357;-75
2023/01/02 06:43:04;;;;;;;7.53;6.17;;;;;;;;;;4928312;28;20487;-77
2023/01/02 06:45:53;;;;;;;7.60;5.83;;;;;;;;;;4925843;28;20456;-76
2023/01/02 06:48:41;;;;;;;7.60;5.93;;;;;;;;;;4934005;28;20498;-75
2023/01/02 06:51:31;;;;;;;7.00;6.13;;;;;;;;;;4924239;28;20837;-76
2023/01/02 06:54:20;;;;;;;7.87;5.70;;;;;;;;;;4913120;28;20467;-75
2023/01/02 06:57:08;;;;;;;8.00;6.10;;;;;;;;;;4936144;28;20463;-76
2023/01/02 06:59:57;;;;;;;11.30;6.07;;;;;;;;;;4939131;28;20898;-76
2023/01/02 07:02:46;;;;;;;7.50;5.90;;;;;;;;;;4944555;28;21085;-76
2023/01/02 07:05:34;;;;;;;8.37;6.20;;;;;;;;;;4944480;28;20467;-76
2023/01/02 07:08:24;;;;;;;6.70;5.70;;;;;;;;;;4937033;28;20985;-76
2023/01/02 07:11:14;;;;;;;6.93;5.80;;;;;;;;;;4925560;28;20491;-75
2023/01/02 07:14:03;;;;;;;6.57;5.43;;;;;;;;;;4939030;28;20495;-75
2023/01/02 07:16:51;;;;;;;7.90;6.33;;;;;;;;;;4946342;28;20602;-77
2023/01/02 07:19:40;;;;;;;7.40;6.17;;;;;;;;;;4918845;28;20479;-75
2023/01/02 07:22:29;;;;;;;8.00;5.63;;;;;;;;;;4920659;28;20487;-75
2023/01/02 07:25:19;;;;;;;8.17;5.70;;;;;;;;;;4928387;28;20490;-75
2023/01/02 07:28:07;;;;;;;7.97;6.30;;;;;;;;;;4916651;28;21414;-75
2023/01/02 07:30:57;;;;;;;10.83;6.20;;;;;;;;;;4919153;28;20495;-76
2023/01/02 07:33:46;;;;;;;7.83;5.93;;;;;;;;;;4934176;28;20470;-75
2023/01/02 07:36:35;;;;;;;6.87;6.17;;;;;;;;;;4909271;28;20487;-76
2023/01/02 07:39:23;;;;;;;9.30;7.10;;;;;;;;;;4924021;28;20938;-75
2023/01/02 07:42:13;;;;;;;7.37;5.90;;;;;;;;;;4918945;28;20483;-75
2023/01/02 07:45:03;;;;;;;7.30;6.57;;;;;;;;;;4912709;28;20610;-77
2023/01/02 07:47:52;;;;;;;8.40;6.00;;;;;;;;;;4913943;28;20456;-75
2023/01/02 07:50:41;;;;;;;6.83;5.23;;;;;;;;;;4918028;28;20830;-75
2023/01/02 07:53:31;;;;;;;6.33;5.23;;;;;;;;;;4927619;28;20455;-75
2023/01/02 07:56:20;;;;;;;7.77;5.23;;;;;;;;;;4942771;28;20579;-76
2023/01/02 07:59:10;;;;;;;9.73;6.07;;;;;;;;;;4946873;28;20472;-76
2023/01/02 08:01:58;;;;;;;7.03;6.07;;;;;;;;;;4946490;28;20483;-76
2023/01/02 08:04:47;;;;;;;8.53;5.93;;;;;;;;;;5018769;23;20510;-73
2023/01/02 08:07:39;;;;;;;6.00;5.30;;;;;;;;;;5015615;28;20449;-73
2023/01/02 08:10:32;;;;;;;7.50;5.83;;;;;;;;;;5004500;28;20874;-74
2023/01/02 08:13:21;;;;;;;8.17;5.87;;;;;;;;;;4998684;28;20927;-73
2023/01/02 08:16:12;;;;;;;6.80;6.10;;;;;;;;;;5007569;28;20444;-74
2023/01/02 08:19:02;;;;;;;10.23;5.90;;;;;;;;;;5001681;28;20468;-74
2023/01/02 08:21:50;;;;;;;7.43;5.77;;;;;;;;;;5006332;28;20624;-74
2023/01/02 08:24:40;;;;;;;7.10;6.07;;;;;;;;;;5005559;28;21010;-73
2023/01/02 08:27:28;;;;;;;7.77;6.33;;;;;;;;;;5011994;28;20733;-71
2023/01/02 08:30:20;;;;;;;6.70;5.60;;;;;;;;;;5006192;28;20457;-73
2023/01/02 08:33:10;;;;;;;9.10;6.03;;;;;;;;;;4993304;28;20486;-74
2023/01/02 08:36:01;;;;;;;8.10;6.40;;;;;;;;;;5006079;28;22239;-71
2023/01/02 08:38:50;;;;;;;7.07;5.90;;;;;;;;;;5004404;28;20464;-72
2023/01/02 08:41:40;;;;;;;8.10;6.20;;;;;;;;;;5007464;28;20848;-73
2023/01/02 08:44:28;;;;;;;6.43;5.77;;;;;;;;;;5003824;28;20489;-73
2023/01/02 08:47:17;;;;;;;7.70;6.10;;;;;;;;;;5001667;28;20798;-73
2023/01/02 08:50:08;;;;;;;7.10;6.10;;;;;;;;;;5009005;28;20571;-72
2023/01/02 08:52:56;;;;;;;7.73;5.83;;;;;;;;;;5005949;28;20525;-73
2023/01/02 08:55:45;;;;;;;8.90;6.10;;;;;;;;;;5015630;28;21002;-72
2023/01/02 08:58:34;;;;;;;7.13;5.90;;;;;;;;;;5011283;28;20452;-72
2023/01/02 09:01:24;;;;;;;9.00;6.33;;;;;;;;;;5011499;28;20486;-72
2023/01/02 09:04:13;;;;;;;6.73;5.30;;;;;;;;;;5016849;28;20899;-73
2023/01/02 09:07:03;;;;;;;7.23;5.53;;;;;;;;;;5015286;28;20464;-74
2023/01/02 09:09:52;;;;;;;8.80;6.67;;;;;;;;;;5010591;28;20464;-73
2023/01/02 09:12:42;;;;;;;7.93;6.50;;;;;;;;;;5016667;28;20475;-73
2023/01/02 09:15:32;;;;;;;8.03;6.60;;;;;;;;;;5002689;28;20480;-73
2023/01/02 09:18:21;;;;;;;7.47;6.53;;;;;;;;;;5011860;28;20451;-73
2023/01/02 09:21:17;;;;;;;6.67;5.90;;;;;;;;;;5007874;28;20582;-72
2023/01/02 09:24:09;;;;;;;9.20;6.20;;;;;;;;;;5010610;28;20484;-72
2023/01/02 09:26:57;;;;;;;7.93;6.20;;;;;;;;;;5017207;28;20539;-73
2023/01/02 09:29:46;;;;;;;6.57;5.97;;;;;;;;;;5013556;28;20463;-73
2023/01/02 09:32:34;;;;;;;6.30;5.70;;;;;;;;;;5015687;28;20503;-73
2023/01/02 09:35:25;;;;;;;7.30;5.80;;;;;;;;;;5011441;28;20475;-73
2023/01/02 09:38:14;;;;;;;10.17;6.03;;;;;;;;;;5004356;28;20456;-73
2023/01/02 09:41:09;;;;;;;6.23;5.63;;;;;;;;;;5005649;28;20970;-73
2023/01/02 09:43:59;;;;;;;6.53;5.60;;;;;;;;;;5009817;28;20530;-72
2023/01/02 09:46:50;;;;;;;8.73;6.57;;;;;;;;;;5008104;28;20452;-72
2023/01/02 09:49:42;;;;;;;6.90;5.30;;;;;;;;;;5002660;28;20543;-72
2023/01/02 09:52:33;;;;;;;7.23;5.93;;;;;;;;;;5002585;28;21056;-73
2023/01/02 09:55:38;;;;;;;7.60;5.40;;;;;;;;;;5004189;28;20962;-73
2023/01/02 09:58:32;;;;;;;8.23;5.93;;;;;;;;;;5006365;28;21034;-73
2023/01/02 10:01:27;;;;;;;7.07;5.40;;;;;;;;;;5012524;28;21076;-73
2023/01/02 10:04:20;;;;;;;7.90;5.73;;;;;;;;;;5011210;28;20523;-73
2023/01/02 10:07:14;;;;;;;7.50;5.63;;;;;;;;;;5016591;28;20467;-73
2023/01/02 10:10:04;;;;;;;6.93;5.70;;;;;;;;;;5013312;28;20601;-73
2023/01/02 10:13:02;;;;;;;6.20;5.60;;;;;;;;;;5015248;28;20537;-74
2023/01/02 10:15:53;;;;;;;6.53;5.30;;;;;;;;;;5011191;28;20509;-73
2023/01/02 10:18:43;;;;;;;9.07;5.60;;;;;;;;;;5003065;28;20627;-71
2023/01/02 10:21:33;;;;;;;7.37;5.50;;;;;;;;;;5009080;28;20483;-73
2023/01/02 10:24:24;;;;;;;7.17;5.50;;;;;;;;;;5018011;28;20483;-73
2023/01/02 10:27:15;;;;;;;9.77;5.83;;;;;;;;;;5019320;28;20728;-73
2023/01/02 10:30:08;;;;;;;6.47;5.80;;;;;;;;;;5017922;28;20521;-73
2023/01/02 10:32:59;;;;;;;6.93;5.13;;;;;;;;;;5016535;28;20467;-73
2023/01/02 10:35:48;;;;;;;6.30;5.70;;;;;;;;;;5018105;28;21210;-74
2023/01/02 10:38:38;;;;;;;6.40;5.43;;;;;;;;;;5006843;28;20457;-73
2023/01/02 10:41:27;;;;;;;6.00;5.40;;;;;;;;;;5018687;28;20612;-74
2023/01/02 10:44:21;;;;;;;6.10;5.50;;;;;;;;;;5020513;28;20485;-73
2023/01/02 10:47:18;;;;;;;6.70;5.40;;;;;;;;;;5014702;28;20537;-73
2023/01/02 10:50:09;;;;;;;5.43;4.93;;;;;;;;;;5009888;28;20597;-75
2023/01/02 10:53:06;;;;;;;6.10;5.23;;;;;;;;;;5010237;28;21129;-72
2023/01/02 10:55:54;;;;;;;9.10;4.97;;;;;;;;;;4999113;28;20569;-72
2023/01/02 10:58:46;;;;;;;6.67;5.27;;;;;;;;;;4999935;28;20468;-73
2023/01/02 11:01:49;;;;;;;5.40;4.97;;;;;;;;;;5009513;28;20834;-74
2023/01/02 11:04:42;;;;;;;5.53;5.03;;;;;;;;;;5016869;28;20582;-74
2023/01/02 11:07:34;;;;;;;5.43;4.90;;;;;;;;;;5010502;28;20460;-74
2023/01/02 11:10:24;;;;;;;6.70;5.50;;;;;;;;;;5009473;28;20611;-73
2023/01/02 11:13:14;;;;;;;4.63;4.27;;;;;;;;;;5008124;28;20466;-74
2023/01/02 11:16:03;;;;;;;5.00;4.50;;;;;;;;;;5016631;28;21095;-74
2023/01/02 11:18:53;;;;;;;5.27;4.77;;;;;;;;;;5015866;28;20461;-74
2023/01/02 11:21:42;;;;;;;5.67;4.57;;;;;;;;;;5004342;28;20495;-74
2023/01/02 11:24:34;;;;;;;6.53;5.40;;;;;;;;;;5010866;28;20467;-73
2023/01/02 11:27:23;;;;;;;4.97;4.47;;;;;;;;;;5006629;28;20462;-73
2023/01/02 11:30:25;;;;;;;3.50;3.20;;;;;;;;;;5009228;28;20990;-71
2023/01/02 11:33:21;;;;;;;6.07;3.10;;;;;;;;;;5011549;28;20444;-72
2023/01/02 11:36:16;;;;;;;2.97;2.67;;;;;;;;;;5006365;28;20963;-72
2023/01/02 11:39:20;;;;;;;2.00;1.90;;;;;;;;;;5011520;28;20590;-71
2023/01/02 11:45:23;;;;;;;0.93;0.90;;;;;;;;;;5012964;28;20484;-70
2023/01/02 11:48:15;;;;;;;1.17;1.07;;;;;;;;;;5011074;28;20568;-70
2023/01/02 11:51:03;;;;;;;1.20;1.00;;;;;;;;;;5013122;28;21007;-71
2023/01/02 11:53:54;;;;;;;0.80;0.80;;;;;;;;;;5012163;28;20480;-72
2023/01/02 11:56:44;;;;;;;0.80;0.80;;;;;;;;;;5008612;28;20468;-74
2023/01/02 11:59:37;;;;;;;0.90;0.90;;;;;;;;;;5004843;28;20460;-71
2023/01/02 12:02:27;;;;;;;1.10;1.00;;;;;;;;;;4996284;28;20545;-71
2023/01/02 12:05:17;;;;;;;0.90;0.90;;;;;;;;;;4992931;28;20594;-71
2023/01/02 12:08:07;;;;;;;1.00;1.00;;;;;;;;;;5002197;28;20670;-71
2023/01/02 12:11:03;;;;;;;1.43;0.80;;;;;;;;;;5004056;28;20536;-71
2023/01/02 12:14:01;;;;;;;2.80;1.50;;;;;;;;;;5009679;28;20476;-71
2023/01/02 12:16:58;;;;;;;1.00;1.00;;;;;;;;;;4995642;28;20532;-71
2023/01/02 12:20:05;;;;;;;1.10;1.10;;;;;;;;;;5003955;28;20493;-71
2023/01/02 12:22:59;;;;;;;1.20;1.10;;;;;;;;;;4995732;28;20705;-71
2023/01/02 12:26:00;;;;;;;2.03;1.50;;;;;;;;;;5001677;28;20492;-71
2023/01/02 12:29:04;;;;;;;1.57;1.40;;;;;;;;;;5011717;28;20464;-72
2023/01/02 12:32:04;;;;;;;1.30;1.20;;;;;;;;;;5013269;28;20481;-72
2023/01/02 12:35:09;;;;;;;1.47;1.37;;;;;;;;;;5000300;28;20578;-72
2023/01/02 12:37:59;;;;;;;1.43;1.10;;;;;;;;;;5019659;28;20467;-72
2023/01/02 12:40:52;;;;;;;1.47;1.10;;;;;;;;;;5011492;28;20494;-71
2023/01/02 12:43:48;;;;;;;1.20;1.10;;;;;;;;;;5010080;28;21388;-71
2023/01/02 12:46:53;;;;;;;1.60;1.20;;;;;;;;;;4994430;28;21256;-72
2023/01/02 12:49:54;;;;;;;1.00;0.90;;;;;;;;;;4993631;28;20468;-72
2023/01/02 12:52:50;;;;;;;0.87;0.87;;;;;;;;;;4993783;28;20487;-72
2023/01/02 12:55:58;;;;;;;1.17;1.07;;;;;;;;;;5007341;28;20459;-71
2023/01/02 12:58:53;;;;;;;1.33;1.23;;;;;;;;;;5009366;28;20632;-71
2023/01/02 13:01:46;;;;;;;1.03;0.93;;;;;;;;;;5007559;28;20518;-71
2023/01/02 13:04:38;;;;;;;1.97;1.03;;;;;;;;;;5009856;28;20933;-71
2023/01/02 13:07:31;;;;;;;1.10;0.93;;;;;;;;;;5001929;28;20541;-72
2023/01/02 13:10:21;;;;;;;1.27;0.90;;;;;;;;;;5006385;28;20848;-70
2023/01/02 13:13:11;;;;;;;1.80;1.27;;;;;;;;;;5007716;28;20444;-71
2023/01/02 13:16:02;;;;;;;2.10;1.20;;;;;;;;;;5012802;28;20463;-69
2023/01/02 13:19:01;;;;;;;1.03;1.00;;;;;;;;;;5008447;28;20447;-69
2023/01/02 13:21:53;;;;;;;3.53;1.10;;;;;;;;;;5007911;28;20492;-69
2023/01/02 13:24:44;;;;;;;2.60;1.13;;;;;;;;;;5012019;28;20495;-68
2023/01/02 13:27:32;;;;;;;1.40;0.90;;;;;;;;;;5015044;28;20476;-69
2023/01/02 13:30:38;;;;;;;1.20;1.10;;;;;;;;;;5008729;28;20479;-70
2023/01/02 13:33:30;;;;;;;1.40;1.10;;;;;;;;;;5000741;28;20463;-71
2023/01/02 13:36:21;;;;;;;1.00;1.00;;;;;;;;;;4998193;28;20471;-70
2023/01/02 13:39:17;;;;;;;1.23;1.13;;;;;;;;;;5008975;28;20491;-71
2023/01/02 13:45:16;;;;;;;2.10;0.90;;;;;;;;;;4991342;28;20478;-69
2023/01/02 13:48:05;;;;;;;1.47;1.00;;;;;;;;;;4994445;28;20471;-70
2023/01/02 13:51:02;;;;;;;1.27;0.90;;;;;;;;;;4996500;28;20619;-70
2023/01/02 13:53:51;;;;;;;1.20;1.10;;;;;;;;;;5001774;28;20614;-69
2023/01/02 13:56:57;;;;;;;1.23;0.97;;;;;;;;;;4991453;28;20460;-70
2023/01/02 13:59:58;;;;;;;1.73;0.90;;;;;;;;;;5000124;28;20452;-69
2023/01/02 14:03:09;;;;;;;1.07;0.87;;;;;;;;;;4993104;28;20511;-70
2023/01/02 14:05:58;;;;;;;0.80;0.80;;;;;;;;;;4982046;28;23732;-69
2023/01/02 14:09:02;;;;;;;1.40;1.00;;;;;;;;;;4987298;28;20490;-70
2023/01/02 14:11:52;;;;;;;1.97;1.00;;;;;;;;;;4985023;28;22469;-71
2023/01/02 14:14:47;;;;;;;0.90;0.80;;;;;;;;;;4974917;28;20479;-70
2023/01/02 14:17:44;;;;;;;1.20;1.10;;;;;;;;;;4989498;28;21098;-69
2023/01/02 14:20:34;;;;;;;1.30;1.00;;;;;;;;;;4979830;28;20494;-69
2023/01/02 14:23:25;;;;;;;1.00;0.90;;;;;;;;;;4974266;28;20460;-69
2023/01/02 14:26:23;;;;;;;1.20;1.00;;;;;;;;;;5009855;28;20572;-70
2023/01/02 14:29:13;;;;;;;1.87;1.10;;;;;;;;;;4976313;28;20587;-70
2023/01/02 14:32:03;;;;;;;1.90;1.27;;;;;;;;;;4990785;28;20479;-71
2023/01/02 14:34:56;;;;;;;1.63;1.00;;;;;;;;;;4984585;28;20911;-70
2023/01/02 14:37:46;;;;;;;1.20;1.10;;;;;;;;;;4974733;28;20459;-69
2023/01/02 14:40:36;;;;;;;1.43;0.97;;;;;;;;;;4976274;28;20546;-72
2023/01/02 14:43:30;;;;;;;1.40;1.30;;;;;;;;;;4974285;28;24388;-71
2023/01/02 14:46:24;;;;;;;1.73;1.30;;;;;;;;;;4985073;28;21003;-70
2023/01/02 14:49:15;;;;;;;1.53;1.30;;;;;;;;;;4990785;28;22006;-72
2023/01/02 14:52:17;;;;;;;1.40;1.30;;;;;;;;;;4983241;28;20537;-72
2023/01/02 14:55:09;;;;;;;1.37;1.27;;;;;;;;;;4996270;28;20464;-73
2023/01/02 14:57:59;;;;;;;2.47;1.50;;;;;;;;;;4976932;28;20510;-72
2023/01/02 15:00:49;;;;;;;1.77;1.23;;;;;;;;;;4988187;28;20638;-71
2023/01/02 15:03:43;;;;;;;1.57;1.47;;;;;;;;;;4987927;28;20624;-73
2023/01/02 15:06:40;;;;;;;1.67;1.57;;;;;;;;;;4999440;28;20825;-73
2023/01/02 15:09:31;;;;;;;2.30;2.00;;;;;;;;;;4981951;28;20571;-74
2023/01/02 15:15:31;;;;;;;2.50;2.17;;;;;;;;;;4997059;28;20488;-75
2023/01/02 15:18:22;;;;;;;5.60;2.43;;;;;;;;;;4997005;28;21007;-77
2023/01/02 15:21:13;;;;;;;2.77;2.10;;;;;;;;;;4992377;28;20973;-75
2023/01/02 15:24:02;;;;;;;4.30;2.63;;;;;;;;;;4976179;28;20476;-77
2023/01/02 15:26:55;;;;;;;2.73;2.40;;;;;;;;;;4991966;28;20922;-79
2023/01/02 15:29:46;;;;;;;3.70;2.53;;;;;;;;;;5006787;28;20488;-72
2023/01/02 15:32:35;;;;;;;3.80;2.57;;;;;;;;;;4990681;28;20479;-72
2023/01/02 15:35:25;;;;;;;2.63;2.43;;;;;;;;;;4994793;28;20812;-74
2023/01/02 15:38:21;;;;;;;2.70;2.50;;;;;;;;;;4990119;28;20947;-71
2023/01/02 15:41:16;;;;;;;3.17;2.53;;;;;;;;;;4997355;28;20990;-72
2023/01/02 15:47:13;;;;;;;3.93;2.60;;;;;;;;;;4995582;28;20804;-72
2023/01/02 15:50:03;;;;;;;2.83;2.63;;;;;;;;;;4990684;28;20460;-72
2023/01/02 15:52:57;;;;;;;3.53;2.23;;;;;;;;;;4986429;28;20452;-70
2023/01/02 15:55:47;;;;;;;3.17;2.33;;;;;;;;;;4977684;28;21025;-72
2023/01/02 15:58:36;;;;;;;2.57;1.70;;;;;;;;;;4985962;28;20478;-73
2023/01/02 16:01:26;;;;;;;4.77;1.87;;;;;;;;;;4975206;28;20906;-71
2023/01/02 16:04:24;;;;;;;2.30;1.67;;;;;;;;;;4988040;28;20503;-74
2023/01/02 16:07:14;;;;;;;4.70;1.93;;;;;;;;;;4988690;28;20475;-73
2023/01/02 16:10:03;;;;;;;1.97;1.87;;;;;;;;;;4999182;28;20492;-71
2023/01/02 16:12:53;;;;;;;2.67;1.80;;;;;;;;;;4994649;28;20527;-71
2023/01/02 16:15:41;;;;;;;1.67;1.57;;;;;;;;;;4992914;28;20467;-72
2023/01/02 16:18:36;;;;;;;4.43;1.97;;;;;;;;;;4973449;28;20523;-72
2023/01/02 16:21:29;;;;;;;2.07;1.70;;;;;;;;;;5003995;28;20497;-73
2023/01/02 16:24:19;;;;;;;1.87;1.70;;;;;;;;;;4986181;28;20537;-72
2023/01/02 16:27:12;;;;;;;1.83;1.73;;;;;;;;;;4982196;28;21200;-72
2023/01/02 16:30:01;;;;;;;3.00;1.93;;;;;;;;;;4979850;28;21173;-72
2023/01/02 16:32:50;;;;;;;3.07;1.80;;;;;;;;;;4988100;28;20521;-71
2023/01/02 16:35:52;;;;;;;2.43;2.10;;;;;;;;;;4985238;28;21461;-72
2023/01/02 16:38:52;;;;;;;3.20;1.80;;;;;;;;;;4979336;28;20475;-73
2023/01/02 16:45:06;;;;;;;2.37;2.07;;;;;;;;;;4999233;28;20587;-74
2023/01/02 16:47:58;;;;;;;1.60;1.50;;;;;;;;;;4986758;28;20476;-75
2023/01/02 16:50:49;;;;;;;2.17;1.63;;;;;;;;;;4989487;28;20491;-73
2023/01/02 16:53:41;;;;;;;2.50;1.83;;;;;;;;;;5001756;28;20483;-72
2023/01/02 16:56:31;;;;;;;2.27;1.63;;;;;;;;;;4995299;28;21026;-73
2023/01/02 16:59:20;;;;;;;3.00;1.83;;;;;;;;;;4997252;28;20483;-73
2023/01/02 17:02:12;;;;;;;2.47;2.10;;;;;;;;;;4978517;28;21097;-74
2023/01/02 17:05:01;;;;;;;4.00;2.07;;;;;;;;;;4985134;28;20565;-72
2023/01/02 17:07:51;;;;;;;2.70;1.70;;;;;;;;;;4980454;28;20495;-77
2023/01/02 17:10:40;;;;;;;2.60;2.10;;;;;;;;;;4991301;28;21090;-73
2023/01/02 17:13:29;;;;;;;3.17;2.30;;;;;;;;;;4993147;28;20593;-71
2023/01/02 17:16:18;;;;;;;1.77;1.67;;;;;;;;;;4988284;28;20475;-71
2023/01/02 17:19:07;;;;;;;2.07;1.90;;;;;;;;;;5007313;28;21027;-71
2023/01/02 17:21:55;;;;;;;2.30;2.03;;;;;;;;;;4985082;28;20768;-72
2023/01/02 17:24:48;;;;;;;3.13;2.10;;;;;;;;;;4994995;28;20970;-72
2023/01/02 17:27:36;;;;;;;3.37;1.70;;;;;;;;;;4989519;28;20571;-72
2023/01/02 17:30:25;;;;;;;3.50;1.80;;;;;;;;;;4989020;28;25308;-72